createdAt,value
2023-03-06T00:03:04.046Z,5.72
2023-03-06T00:08:08.079Z,5.65
2023-03-06T00:13:18.062Z,5.50
2023-03-06T00:18:21.687Z,5.90
2023-03-06T00:23:30.657Z,5.35
2023-03-06T00:28:38.213Z,4.72
2023-03-06T00:33:43.756Z,5.30
2023-03-06T00:38:47.112Z,5.13
2023-03-06T00:43:52.393Z,5.28
2023-03-06T00:48:56.171Z,4.80
2023-03-06T00:53:59.903Z,5.78
2023-03-06T00:59:04.442Z,5.50
2023-03-06T01:04:07.778Z,5.28
2023-03-06T01:09:11.447Z,5.70
2023-03-06T01:14:16.020Z,5.43
2023-03-06T01:19:20.468Z,5.03
2023-03-06T01:24:25.946Z,5.95
2023-03-06T01:29:34.967Z,5.75
2023-03-06T01:34:38.262Z,5.68
2023-03-06T01:39:41.562Z,5.10
2023-03-06T01:45:31.524Z,5.03
2023-03-06T01:50:35.457Z,5.22
2023-03-06T01:55:40.124Z,4.88
2023-03-06T02:00:45.757Z,5.53
2023-03-06T02:05:50.093Z,5.35
2023-03-06T02:10:59.844Z,5.22
2023-03-06T02:16:04.701Z,4.72
2023-03-06T02:21:13.272Z,5.55
2023-03-06T02:26:19.313Z,5.22
2023-03-06T02:31:26.451Z,5.72
2023-03-06T02:36:30.168Z,5.63
2023-03-06T02:41:35.416Z,6.00
2023-03-06T02:46:39.526Z,5.50
2023-03-06T02:51:43.904Z,6.07
2023-03-06T02:56:51.425Z,5.38
2023-03-06T03:01:56.654Z,6.13
2023-03-06T03:07:02.442Z,5.93
2023-03-06T03:12:09.140Z,6.05
2023-03-06T03:17:13.368Z,5.57
2023-03-06T03:22:17.861Z,5.68
2023-03-06T03:27:22.644Z,6.57
2023-03-06T03:32:26.764Z,5.80
2023-03-06T03:37:30.768Z,5.75
2023-03-06T03:42:36.270Z,6.07
2023-03-06T03:47:41.794Z,5.47
2023-03-06T03:52:46.476Z,6.07
2023-03-06T03:57:51.681Z,6.28
2023-03-06T04:02:56.057Z,6.53
2023-03-06T04:08:20.233Z,6.65
2023-03-06T04:13:26.834Z,4.97
2023-03-06T04:18:30.485Z,5.70
2023-03-06T04:23:39.691Z,6.05
2023-03-06T04:28:45.136Z,7.22
2023-03-06T04:33:49.531Z,6.80
2023-03-06T04:38:53.157Z,6.63
2023-03-06T04:44:01.916Z,6.95
2023-03-06T04:49:06.608Z,6.03
2023-03-06T04:54:10.152Z,6.93
2023-03-06T04:59:17.660Z,6.80
2023-03-06T05:04:21.462Z,6.88
2023-03-06T05:09:25.102Z,7.05
2023-03-06T05:14:35.738Z,7.20
2023-03-06T05:19:39.339Z,7.60
2023-03-06T05:24:43.384Z,6.90
2023-03-06T05:29:57.652Z,7.25
2023-03-06T05:35:05.475Z,6.72
2023-03-06T05:40:15.419Z,7.68
2023-03-06T05:45:55.835Z,6.72
2023-03-06T05:51:00.608Z,7.25
2023-03-06T05:56:07.251Z,7.53
2023-03-06T06:01:12.565Z,7.25
2023-03-06T06:06:18.735Z,7.38
2023-03-06T06:11:22.968Z,8.13
2023-03-06T06:16:28.423Z,8.02
2023-03-06T06:21:35.272Z,7.60
2023-03-06T06:26:39.378Z,7.32
2023-03-06T06:31:44.605Z,7.82
2023-03-06T06:36:48.435Z,7.43
2023-03-06T06:42:09.687Z,8.05
2023-03-06T06:47:23.024Z,7.60
2023-03-06T06:52:28.017Z,7.93
2023-03-06T06:57:31.775Z,7.72
2023-03-06T07:02:36.733Z,7.88
2023-03-06T07:07:41.239Z,8.43
2023-03-06T07:12:46.187Z,7.53
2023-03-06T07:17:51.639Z,7.25
2023-03-06T07:22:55.363Z,7.25
2023-03-06T07:28:01.028Z,8.82
2023-03-06T07:33:06.386Z,8.65
2023-03-06T07:38:12.992Z,6.38
2023-03-06T07:49:46.181Z,9.13
2023-03-06T07:54:49.765Z,9.50
2023-03-06T07:59:53.659Z,8.35
2023-03-06T08:04:58.637Z,9.13
2023-03-06T08:10:02.254Z,8.85
2023-03-06T08:15:07.048Z,9.05
2023-03-06T08:20:17.379Z,9.95
2023-03-06T08:25:25.340Z,9.13
2023-03-06T08:30:28.717Z,9.15
2023-03-06T08:35:35.524Z,9.68
2023-03-06T08:40:41.475Z,9.55
2023-03-06T08:45:45.733Z,9.73
2023-03-06T08:50:50.738Z,10.15
2023-03-06T08:55:54.613Z,9.73
2023-03-06T09:01:01.002Z,7.88
2023-03-06T09:06:08.489Z,9.95
2023-03-06T09:11:12.692Z,7.75
2023-03-06T09:16:24.994Z,7.63
2023-03-06T09:21:30.228Z,8.32
2023-03-06T09:26:45.462Z,9.95
2023-03-06T09:31:50.075Z,7.82
2023-03-06T09:36:57.668Z,9.20
2023-03-06T09:42:02.263Z,8.05
2023-03-06T09:47:20.898Z,7.70
2023-03-06T09:52:33.652Z,7.68
2023-03-06T09:57:43.745Z,7.57
2023-03-06T10:02:49.073Z,7.80
2023-03-06T10:07:56.079Z,8.00
2023-03-06T10:13:02.914Z,9.18
2023-03-06T10:18:06.676Z,9.50
2023-03-06T10:23:30.498Z,9.75
2023-03-06T10:28:35.602Z,9.73
2023-03-06T10:33:47.220Z,7.13
2023-03-06T10:38:52.488Z,9.00
2023-03-06T10:44:28.845Z,8.00
2023-03-06T10:49:39.138Z,7.88
2023-03-06T10:54:44.959Z,8.30
2023-03-06T10:59:56.036Z,9.82
2023-03-06T11:05:01.941Z,8.43
2023-03-06T11:10:19.312Z,9.57
2023-03-06T11:15:25.049Z,9.40
2023-03-06T11:20:50.509Z,8.85
2023-03-06T11:26:03.646Z,8.02
2023-03-06T11:31:13.791Z,8.80
2023-03-06T11:36:19.299Z,8.38
2023-03-06T11:41:33.406Z,8.50
2023-03-06T11:46:42.124Z,8.35
2023-03-06T11:51:53.464Z,7.57
2023-03-06T11:56:59.777Z,8.15
2023-03-06T12:02:06.299Z,5.55
2023-03-06T12:07:22.050Z,7.60
2023-03-06T12:12:41.085Z,7.68
2023-03-06T12:18:02.144Z,8.23
2023-03-06T12:23:15.374Z,7.65
2023-03-06T12:28:38.536Z,8.10
2023-03-06T12:33:49.354Z,7.95
2023-03-06T12:39:06.076Z,8.13
2023-03-06T12:44:29.050Z,7.57
2023-03-06T12:49:38.915Z,7.07
2023-03-06T12:54:42.268Z,8.00
2023-03-06T12:59:48.894Z,6.53
2023-03-06T13:05:11.237Z,8.20
2023-03-06T13:10:17.515Z,7.38
2023-03-06T13:15:42.760Z,7.53
2023-03-06T13:20:47.142Z,7.85
2023-03-06T13:25:51.779Z,8.10
2023-03-06T13:30:58.364Z,7.47
2023-03-06T13:36:06.181Z,8.30
2023-03-06T13:41:43.568Z,7.43
2023-03-06T13:46:57.168Z,7.93
2023-03-06T13:52:08.814Z,7.53
2023-03-06T13:57:37.940Z,8.48
2023-03-06T14:03:08.601Z,8.32
2023-03-06T14:08:13.966Z,8.48
2023-03-06T14:13:19.721Z,7.38
2023-03-06T14:18:25.174Z,8.95
2023-03-06T14:23:42.886Z,8.38
2023-03-06T14:28:47.841Z,7.90
2023-03-06T14:33:58.552Z,9.00
2023-03-06T14:39:06.190Z,8.68
2023-03-06T14:44:11.461Z,5.78
2023-03-06T14:49:18.314Z,7.63
2023-03-06T14:54:26.732Z,7.15
2023-03-06T14:59:34.089Z,9.23
2023-03-06T15:04:42.049Z,6.07
2023-03-06T15:09:49.106Z,8.40
2023-03-06T15:14:59.368Z,6.68
2023-03-06T15:20:08.891Z,7.28
2023-03-06T15:25:27.534Z,7.25
2023-03-06T15:30:35.662Z,5.07
2023-03-06T15:35:41.521Z,7.25
2023-03-06T15:40:55.707Z,7.45
2023-03-06T15:46:03.067Z,5.38
2023-03-06T15:51:10.452Z,5.63
2023-03-06T15:56:13.828Z,6.28
2023-03-06T16:01:18.616Z,6.43
2023-03-06T16:06:25.144Z,6.93
2023-03-06T16:11:35.348Z,7.63
2023-03-06T16:16:46.257Z,6.95
2023-03-06T16:21:55.204Z,7.65
2023-03-06T16:26:59.746Z,5.70
2023-03-06T16:32:03.318Z,7.22
2023-03-06T16:37:10.672Z,9.18
2023-03-06T16:42:19.160Z,6.60
2023-03-06T16:47:26.105Z,7.90
2023-03-06T16:52:31.022Z,7.85
2023-03-06T16:57:36.236Z,8.15
2023-03-06T17:02:41.449Z,8.07
2023-03-06T17:07:54.161Z,8.20
2023-03-06T17:18:02.924Z,6.72
2023-03-06T17:23:07.835Z,8.02
2023-03-06T17:28:12.782Z,6.93
2023-03-06T17:33:16.564Z,7.63
2023-03-06T17:38:21.866Z,9.15
2023-03-06T17:43:25.769Z,6.68
2023-03-06T17:48:32.699Z,7.65
2023-03-06T17:53:39.236Z,8.90
2023-03-06T17:58:45.129Z,8.02
2023-03-06T18:03:53.276Z,9.38
2023-03-06T18:08:58.294Z,7.30
2023-03-06T18:14:05.479Z,9.02
2023-03-06T18:19:12.709Z,10.65
2023-03-06T18:24:18.253Z,10.00
2023-03-06T18:29:26.881Z,7.95
2023-03-06T18:34:33.762Z,9.27
2023-03-06T18:39:41.093Z,8.68
2023-03-06T18:44:47.764Z,10.15
2023-03-06T18:49:51.796Z,9.57
2023-03-06T18:54:57.461Z,11.18
2023-03-06T19:00:03.734Z,9.75
2023-03-06T19:05:09.223Z,9.50
2023-03-06T19:10:16.116Z,11.30
2023-03-06T19:15:19.635Z,11.18
2023-03-06T19:20:23.636Z,11.43
2023-03-06T19:25:29.147Z,9.07
2023-03-06T19:30:33.644Z,11.52
2023-03-06T19:35:36.998Z,12.38
2023-03-06T19:40:49.378Z,9.85
2023-03-06T19:45:54.509Z,10.43
2023-03-06T19:50:58.356Z,12.77
2023-03-06T19:56:08.981Z,12.20
2023-03-06T20:01:14.843Z,9.05
2023-03-06T20:06:19.547Z,10.85
2023-03-06T20:11:26.330Z,13.10
2023-03-06T20:16:29.776Z,11.88
2023-03-06T20:21:38.132Z,12.57
2023-03-06T20:26:43.901Z,12.38
2023-03-06T20:31:48.429Z,11.82
2023-03-06T20:36:52.019Z,11.10
2023-03-06T20:41:59.056Z,12.05
2023-03-06T20:47:03.117Z,11.88
2023-03-06T20:52:06.550Z,11.20
2023-03-06T20:57:13.986Z,11.65
2023-03-06T21:02:18.508Z,11.35
2023-03-06T21:07:23.947Z,10.30
2023-03-06T21:12:29.029Z,9.32
2023-03-06T21:17:32.940Z,12.13
2023-03-06T21:22:40.901Z,9.93
2023-03-06T21:27:46.013Z,12.48
2023-03-06T21:32:51.406Z,11.07
2023-03-06T21:37:55.320Z,10.77
2023-03-06T21:43:04.875Z,12.85
2023-03-06T21:48:09.353Z,10.68
2023-03-06T21:53:12.888Z,13.50
2023-03-06T21:58:19.665Z,9.68
2023-03-06T22:03:23.192Z,13.73
2023-03-06T22:08:28.139Z,14.25
2023-03-06T22:13:32.848Z,14.40
2023-03-06T22:18:36.490Z,11.02
2023-03-06T22:23:40.595Z,11.82
2023-03-06T22:28:45.244Z,15.85
2023-03-06T22:33:52.368Z,13.55
2023-03-06T22:39:01.046Z,15.75
2023-03-06T22:44:06.538Z,11.77
2023-03-06T22:49:10.686Z,11.65
2023-03-06T22:54:14.143Z,13.68
2023-03-06T22:59:21.293Z,17.00
2023-03-06T23:04:24.778Z,12.27
2023-03-06T23:09:27.842Z,11.90
2023-03-06T23:14:51.479Z,13.75
2023-03-06T23:20:14.651Z,16.45
2023-03-06T23:25:37.597Z,14.57
2023-03-06T23:30:42.428Z,19.95
2023-03-06T23:35:45.909Z,14.80
2023-03-06T23:40:49.644Z,14.20
2023-03-06T23:46:00.532Z,22.02
2023-03-06T23:51:06.824Z,13.80
2023-03-06T23:56:11.326Z,19.58
